sensor_id;sensor_type;location;lat;lon;timestamp;P1;durP1;ratioP1;P2;durP2;ratioP2
45642;SDS011;31358;46.008;11.144;2023-05-10T00:01:46;6.00;;;3.92;;
45642;SDS011;31358;46.008;11.144;2023-05-10T00:04:12;7.47;;;5.20;;
45642;SDS011;31358;46.008;11.144;2023-05-10T00:06:38;7.78;;;4.25;;
45642;SDS011;31358;46.008;11.144;2023-05-10T00:09:03;7.25;;;4.57;;
45642;SDS011;31358;46.008;11.144;2023-05-10T00:11:29;8.63;;;4.35;;
45642;SDS011;31358;46.008;11.144;2023-05-10T00:13:55;7.95;;;4.25;;
45642;SDS011;31358;46.008;11.144;2023-05-10T00:16:20;9.02;;;5.18;;
45642;SDS011;31358;46.008;11.144;2023-05-10T00:18:46;8.63;;;4.60;;
45642;SDS011;31358;46.008;11.144;2023-05-10T00:21:12;8.02;;;4.55;;
45642;SDS011;31358;46.008;11.144;2023-05-10T00:23:37;6.45;;;4.13;;
45642;SDS011;31358;46.008;11.144;2023-05-10T00:26:03;6.95;;;3.97;;
45642;SDS011;31358;46.008;11.144;2023-05-10T00:28:29;6.70;;;4.28;;
45642;SDS011;31358;46.008;11.144;2023-05-10T00:30:54;9.07;;;4.68;;
45642;SDS011;31358;46.008;11.144;2023-05-10T00:33:21;10.57;;;5.65;;
45642;SDS011;31358;46.008;11.144;2023-05-10T00:35:46;9.63;;;5.38;;
45642;SDS011;31358;46.008;11.144;2023-05-10T00:38:12;6.70;;;4.63;;
45642;SDS011;31358;46.008;11.144;2023-05-10T00:40:38;9.32;;;5.20;;
45642;SDS011;31358;46.008;11.144;2023-05-10T00:43:03;8.35;;;3.95;;
45642;SDS011;31358;46.008;11.144;2023-05-10T00:45:30;6.80;;;4.15;;
45642;SDS011;31358;46.008;11.144;2023-05-10T00:47:57;7.13;;;4.40;;
45642;SDS011;31358;46.008;11.144;2023-05-10T00:50:24;7.05;;;4.38;;
45642;SDS011;31358;46.008;11.144;2023-05-10T00:52:51;7.25;;;4.43;;
45642;SDS011;31358;46.008;11.144;2023-05-10T00:55:17;6.00;;;3.88;;
45642;SDS011;31358;46.008;11.144;2023-05-10T00:57:43;7.57;;;4.00;;
45642;SDS011;31358;46.008;11.144;2023-05-10T01:00:09;7.05;;;4.57;;
45642;SDS011;31358;46.008;11.144;2023-05-10T01:02:36;5.82;;;3.85;;
45642;SDS011;31358;46.008;11.144;2023-05-10T01:05:02;6.43;;;4.20;;
45642;SDS011;31358;46.008;11.144;2023-05-10T01:07:31;6.57;;;4.13;;
45642;SDS011;31358;46.008;11.144;2023-05-10T01:09:57;6.80;;;4.57;;
45642;SDS011;31358;46.008;11.144;2023-05-10T01:12:22;8.00;;;4.88;;
45642;SDS011;31358;46.008;11.144;2023-05-10T01:14:48;7.70;;;4.20;;
45642;SDS011;31358;46.008;11.144;2023-05-10T01:17:14;8.23;;;4.47;;
45642;SDS011;31358;46.008;11.144;2023-05-10T01:19:41;7.75;;;4.25;;
45642;SDS011;31358;46.008;11.144;2023-05-10T01:22:30;7.53;;;4.00;;
45642;SDS011;31358;46.008;11.144;2023-05-10T01:38:49;6.32;;;4.00;;
45642;SDS011;31358;46.008;11.144;2023-05-10T01:41:40;9.88;;;4.82;;
45642;SDS011;31358;46.008;11.144;2023-05-10T01:46:52;7.00;;;4.40;;
45642;SDS011;31358;46.008;11.144;2023-05-10T01:49:26;6.97;;;4.78;;
45642;SDS011;31358;46.008;11.144;2023-05-10T01:54:29;5.57;;;3.60;;
45642;SDS011;31358;46.008;11.144;2023-05-10T01:57:02;7.47;;;4.50;;
45642;SDS011;31358;46.008;11.144;2023-05-10T01:59:35;7.30;;;4.13;;
45642;SDS011;31358;46.008;11.144;2023-05-10T02:02:06;6.07;;;4.30;;
45642;SDS011;31358;46.008;11.144;2023-05-10T02:04:36;6.43;;;4.13;;
45642;SDS011;31358;46.008;11.144;2023-05-10T02:07:04;6.97;;;4.72;;
45642;SDS011;31358;46.008;11.144;2023-05-10T02:09:32;9.20;;;4.32;;
45642;SDS011;31358;46.008;11.144;2023-05-10T02:11:59;6.70;;;4.03;;
45642;SDS011;31358;46.008;11.144;2023-05-10T02:14:27;5.80;;;4.07;;
45642;SDS011;31358;46.008;11.144;2023-05-10T02:16:57;7.32;;;3.80;;
45642;SDS011;31358;46.008;11.144;2023-05-10T02:19:24;6.95;;;4.13;;
45642;SDS011;31358;46.008;11.144;2023-05-10T02:21:52;5.60;;;3.83;;
45642;SDS011;31358;46.008;11.144;2023-05-10T02:24:20;7.32;;;4.53;;
45642;SDS011;31358;46.008;11.144;2023-05-10T02:26:47;7.45;;;3.83;;
45642;SDS011;31358;46.008;11.144;2023-05-10T02:29:14;8.50;;;4.10;;
45642;SDS011;31358;46.008;11.144;2023-05-10T02:31:41;6.53;;;3.58;;
45642;SDS011;31358;46.008;11.144;2023-05-10T02:34:08;9.40;;;4.25;;
45642;SDS011;31358;46.008;11.144;2023-05-10T02:36:36;6.45;;;3.33;;
45642;SDS011;31358;46.008;11.144;2023-05-10T02:39:05;7.00;;;4.47;;
45642;SDS011;31358;46.008;11.144;2023-05-10T02:41:37;7.78;;;4.25;;
45642;SDS011;31358;46.008;11.144;2023-05-10T02:44:06;6.45;;;4.35;;
45642;SDS011;31358;46.008;11.144;2023-05-10T02:46:33;8.98;;;4.57;;
45642;SDS011;31358;46.008;11.144;2023-05-10T02:48:59;7.50;;;4.63;;
45642;SDS011;31358;46.008;11.144;2023-05-10T02:51:27;6.18;;;3.90;;
45642;SDS011;31358;46.008;11.144;2023-05-10T02:53:57;9.45;;;3.70;;
45642;SDS011;31358;46.008;11.144;2023-05-10T02:56:27;6.03;;;3.20;;
45642;SDS011;31358;46.008;11.144;2023-05-10T02:58:56;5.78;;;3.60;;
45642;SDS011;31358;46.008;11.144;2023-05-10T03:01:22;6.10;;;3.58;;
45642;SDS011;31358;46.008;11.144;2023-05-10T03:03:48;6.82;;;3.50;;
45642;SDS011;31358;46.008;11.144;2023-05-10T03:06:14;6.05;;;2.72;;
45642;SDS011;31358;46.008;11.144;2023-05-10T03:08:41;5.60;;;3.40;;
45642;SDS011;31358;46.008;11.144;2023-05-10T03:11:22;5.45;;;3.20;;
45642;SDS011;31358;46.008;11.144;2023-05-10T03:16:56;6.32;;;3.35;;
45642;SDS011;31358;46.008;11.144;2023-05-10T03:19:30;6.30;;;3.30;;
45642;SDS011;31358;46.008;11.144;2023-05-10T03:22:03;6.10;;;3.03;;
45642;SDS011;31358;46.008;11.144;2023-05-10T03:24:33;5.38;;;3.42;;
45642;SDS011;31358;46.008;11.144;2023-05-10T03:27:00;8.07;;;3.47;;
45642;SDS011;31358;46.008;11.144;2023-05-10T03:29:29;5.28;;;3.40;;
45642;SDS011;31358;46.008;11.144;2023-05-10T03:31:57;9.38;;;3.75;;
45642;SDS011;31358;46.008;11.144;2023-05-10T03:34:24;6.25;;;4.00;;
45642;SDS011;31358;46.008;11.144;2023-05-10T03:36:50;5.80;;;3.63;;
45642;SDS011;31358;46.008;11.144;2023-05-10T03:39:16;8.82;;;4.13;;
45642;SDS011;31358;46.008;11.144;2023-05-10T03:41:41;6.38;;;3.72;;
45642;SDS011;31358;46.008;11.144;2023-05-10T03:44:07;7.93;;;4.00;;
45642;SDS011;31358;46.008;11.144;2023-05-10T03:46:33;6.90;;;3.35;;
45642;SDS011;31358;46.008;11.144;2023-05-10T03:48:58;7.38;;;4.10;;
45642;SDS011;31358;46.008;11.144;2023-05-10T03:51:24;9.25;;;3.83;;
45642;SDS011;31358;46.008;11.144;2023-05-10T03:53:53;6.63;;;3.80;;
45642;SDS011;31358;46.008;11.144;2023-05-10T03:56:19;9.95;;;4.32;;
45642;SDS011;31358;46.008;11.144;2023-05-10T03:58:45;5.55;;;3.70;;
45642;SDS011;31358;46.008;11.144;2023-05-10T04:01:11;8.20;;;4.28;;
45642;SDS011;31358;46.008;11.144;2023-05-10T04:03:37;6.03;;;3.83;;
45642;SDS011;31358;46.008;11.144;2023-05-10T04:06:03;6.32;;;3.85;;
45642;SDS011;31358;46.008;11.144;2023-05-10T04:08:29;5.47;;;3.58;;
45642;SDS011;31358;46.008;11.144;2023-05-10T04:11:04;5.85;;;4.25;;
45642;SDS011;31358;46.008;11.144;2023-05-10T04:13:31;5.53;;;4.03;;
45642;SDS011;31358;46.008;11.144;2023-05-10T04:15:57;6.90;;;4.15;;
45642;SDS011;31358;46.008;11.144;2023-05-10T04:18:23;6.75;;;3.55;;
45642;SDS011;31358;46.008;11.144;2023-05-10T04:20:48;5.97;;;3.40;;
45642;SDS011;31358;46.008;11.144;2023-05-10T04:23:14;5.55;;;3.60;;
45642;SDS011;31358;46.008;11.144;2023-05-10T04:25:41;6.10;;;3.20;;
45642;SDS011;31358;46.008;11.144;2023-05-10T04:28:07;7.30;;;3.65;;
45642;SDS011;31358;46.008;11.144;2023-05-10T04:30:33;6.65;;;2.97;;
45642;SDS011;31358;46.008;11.144;2023-05-10T04:32:59;5.07;;;3.22;;
45642;SDS011;31358;46.008;11.144;2023-05-10T04:35:27;5.15;;;3.22;;
45642;SDS011;31358;46.008;11.144;2023-05-10T04:37:53;5.47;;;3.30;;
45642;SDS011;31358;46.008;11.144;2023-05-10T04:40:19;5.60;;;3.25;;
45642;SDS011;31358;46.008;11.144;2023-05-10T04:42:45;5.95;;;3.10;;
45642;SDS011;31358;46.008;11.144;2023-05-10T04:45:11;6.18;;;3.58;;
45642;SDS011;31358;46.008;11.144;2023-05-10T04:47:37;8.23;;;3.17;;
45642;SDS011;31358;46.008;11.144;2023-05-10T04:50:03;6.65;;;3.75;;
45642;SDS011;31358;46.008;11.144;2023-05-10T04:52:29;5.38;;;3.33;;
45642;SDS011;31358;46.008;11.144;2023-05-10T04:54:55;5.70;;;3.33;;
45642;SDS011;31358;46.008;11.144;2023-05-10T04:57:20;7.93;;;3.35;;
45642;SDS011;31358;46.008;11.144;2023-05-10T04:59:47;5.63;;;3.20;;
45642;SDS011;31358;46.008;11.144;2023-05-10T05:02:13;4.97;;;2.50;;
45642;SDS011;31358;46.008;11.144;2023-05-10T05:04:38;6.75;;;3.00;;
45642;SDS011;31358;46.008;11.144;2023-05-10T05:07:04;6.30;;;2.90;;
45642;SDS011;31358;46.008;11.144;2023-05-10T05:09:30;7.00;;;3.63;;
45642;SDS011;31358;46.008;11.144;2023-05-10T05:11:57;6.55;;;3.47;;
45642;SDS011;31358;46.008;11.144;2023-05-10T05:14:22;5.72;;;3.40;;
45642;SDS011;31358;46.008;11.144;2023-05-10T05:16:50;6.00;;;3.22;;
45642;SDS011;31358;46.008;11.144;2023-05-10T05:19:18;8.02;;;3.25;;
45642;SDS011;31358;46.008;11.144;2023-05-10T05:21:44;5.90;;;3.72;;
45642;SDS011;31358;46.008;11.144;2023-05-10T05:24:10;5.80;;;3.65;;
45642;SDS011;31358;46.008;11.144;2023-05-10T05:26:37;6.45;;;3.55;;
45642;SDS011;31358;46.008;11.144;2023-05-10T05:29:03;6.95;;;3.70;;
45642;SDS011;31358;46.008;11.144;2023-05-10T05:31:29;6.60;;;4.22;;
45642;SDS011;31358;46.008;11.144;2023-05-10T05:33:54;7.70;;;4.53;;
45642;SDS011;31358;46.008;11.144;2023-05-10T05:36:20;6.70;;;4.32;;
45642;SDS011;31358;46.008;11.144;2023-05-10T05:38:46;6.25;;;3.67;;
45642;SDS011;31358;46.008;11.144;2023-05-10T05:41:12;7.90;;;4.13;;
45642;SDS011;31358;46.008;11.144;2023-05-10T05:43:38;5.85;;;4.05;;
45642;SDS011;31358;46.008;11.144;2023-05-10T05:46:04;6.50;;;3.35;;
45642;SDS011;31358;46.008;11.144;2023-05-10T05:48:30;7.90;;;4.32;;
45642;SDS011;31358;46.008;11.144;2023-05-10T05:50:56;8.57;;;4.28;;
45642;SDS011;31358;46.008;11.144;2023-05-10T05:53:22;6.85;;;4.50;;
45642;SDS011;31358;46.008;11.144;2023-05-10T05:55:54;8.50;;;5.47;;
45642;SDS011;31358;46.008;11.144;2023-05-10T05:58:21;8.00;;;5.63;;
45642;SDS011;31358;46.008;11.144;2023-05-10T06:00:47;8.90;;;5.53;;
45642;SDS011;31358;46.008;11.144;2023-05-10T06:03:13;6.75;;;4.53;;
45642;SDS011;31358;46.008;11.144;2023-05-10T06:05:39;7.95;;;4.97;;
45642;SDS011;31358;46.008;11.144;2023-05-10T06:08:05;7.13;;;4.47;;
45642;SDS011;31358;46.008;11.144;2023-05-10T06:10:30;7.45;;;4.10;;
45642;SDS011;31358;46.008;11.144;2023-05-10T06:12:56;6.85;;;4.40;;
45642;SDS011;31358;46.008;11.144;2023-05-10T06:15:22;7.13;;;3.80;;
45642;SDS011;31358;46.008;11.144;2023-05-10T06:17:48;6.68;;;4.07;;
45642;SDS011;31358;46.008;11.144;2023-05-10T06:20:14;5.03;;;3.20;;
45642;SDS011;31358;46.008;11.144;2023-05-10T06:22:40;8.18;;;3.80;;
45642;SDS011;31358;46.008;11.144;2023-05-10T06:25:06;6.22;;;3.50;;
45642;SDS011;31358;46.008;11.144;2023-05-10T06:27:33;5.32;;;3.45;;
45642;SDS011;31358;46.008;11.144;2023-05-10T06:29:58;6.80;;;3.67;;
45642;SDS011;31358;46.008;11.144;2023-05-10T06:32:24;7.40;;;3.97;;
45642;SDS011;31358;46.008;11.144;2023-05-10T06:34:50;6.95;;;4.30;;
45642;SDS011;31358;46.008;11.144;2023-05-10T06:37:16;7.93;;;5.00;;
45642;SDS011;31358;46.008;11.144;2023-05-10T06:39:41;6.82;;;4.13;;
45642;SDS011;31358;46.008;11.144;2023-05-10T06:42:07;5.80;;;3.92;;
45642;SDS011;31358;46.008;11.144;2023-05-10T06:44:33;8.70;;;3.65;;
45642;SDS011;31358;46.008;11.144;2023-05-10T06:46:58;7.38;;;4.28;;
45642;SDS011;31358;46.008;11.144;2023-05-10T06:49:24;7.40;;;4.63;;
45642;SDS011;31358;46.008;11.144;2023-05-10T06:51:50;7.88;;;5.00;;
45642;SDS011;31358;46.008;11.144;2023-05-10T06:54:15;7.95;;;4.78;;
45642;SDS011;31358;46.008;11.144;2023-05-10T06:56:41;5.93;;;3.80;;
45642;SDS011;31358;46.008;11.144;2023-05-10T06:59:07;10.20;;;4.68;;
45642;SDS011;31358;46.008;11.144;2023-05-10T07:01:32;9.32;;;4.63;;
45642;SDS011;31358;46.008;11.144;2023-05-10T07:03:58;5.93;;;3.97;;
45642;SDS011;31358;46.008;11.144;2023-05-10T07:06:24;6.15;;;3.25;;
45642;SDS011;31358;46.008;11.144;2023-05-10T07:08:50;8.15;;;4.13;;
45642;SDS011;31358;46.008;11.144;2023-05-10T07:11:15;6.90;;;5.00;;
45642;SDS011;31358;46.008;11.144;2023-05-10T07:13:41;6.75;;;3.72;;
45642;SDS011;31358;46.008;11.144;2023-05-10T07:16:09;5.05;;;3.55;;
45642;SDS011;31358;46.008;11.144;2023-05-10T07:18:35;6.43;;;3.08;;
45642;SDS011;31358;46.008;11.144;2023-05-10T07:21:01;5.03;;;3.63;;
45642;SDS011;31358;46.008;11.144;2023-05-10T07:23:27;5.55;;;3.40;;
45642;SDS011;31358;46.008;11.144;2023-05-10T07:25:52;5.03;;;3.33;;
45642;SDS011;31358;46.008;11.144;2023-05-10T07:28:18;4.97;;;3.10;;
45642;SDS011;31358;46.008;11.144;2023-05-10T07:30:44;10.88;;;4.57;;
45642;SDS011;31358;46.008;11.144;2023-05-10T07:33:11;8.63;;;4.18;;
45642;SDS011;31358;46.008;11.144;2023-05-10T07:35:38;5.65;;;3.55;;
45642;SDS011;31358;46.008;11.144;2023-05-10T07:38:04;7.13;;;3.85;;
45642;SDS011;31358;46.008;11.144;2023-05-10T07:40:30;5.97;;;3.33;;
45642;SDS011;31358;46.008;11.144;2023-05-10T07:42:55;5.20;;;3.42;;
45642;SDS011;31358;46.008;11.144;2023-05-10T07:45:21;4.75;;;3.30;;
45642;SDS011;31358;46.008;11.144;2023-05-10T07:47:47;6.53;;;3.42;;
45642;SDS011;31358;46.008;11.144;2023-05-10T07:50:13;7.30;;;3.72;;
45642;SDS011;31358;46.008;11.144;2023-05-10T07:52:39;7.45;;;3.70;;
45642;SDS011;31358;46.008;11.144;2023-05-10T07:55:05;5.63;;;3.38;;
45642;SDS011;31358;46.008;11.144;2023-05-10T07:57:32;6.20;;;3.22;;
45642;SDS011;31358;46.008;11.144;2023-05-10T07:59:58;6.63;;;3.40;;
45642;SDS011;31358;46.008;11.144;2023-05-10T08:02:24;5.75;;;3.47;;
45642;SDS011;31358;46.008;11.144;2023-05-10T08:04:50;5.75;;;3.63;;
45642;SDS011;31358;46.008;11.144;2023-05-10T08:07:16;7.43;;;4.57;;
45642;SDS011;31358;46.008;11.144;2023-05-10T08:09:42;7.40;;;4.57;;
45642;SDS011;31358;46.008;11.144;2023-05-10T08:12:08;7.97;;;5.22;;
45642;SDS011;31358;46.008;11.144;2023-05-10T08:14:33;7.28;;;4.05;;
45642;SDS011;31358;46.008;11.144;2023-05-10T08:17:01;6.00;;;4.15;;
45642;SDS011;31358;46.008;11.144;2023-05-10T08:19:28;7.03;;;3.20;;
45642;SDS011;31358;46.008;11.144;2023-05-10T08:21:53;5.85;;;2.85;;
45642;SDS011;31358;46.008;11.144;2023-05-10T08:24:20;5.95;;;3.35;;
45642;SDS011;31358;46.008;11.144;2023-05-10T08:26:46;5.97;;;4.15;;
45642;SDS011;31358;46.008;11.144;2023-05-10T08:29:12;7.72;;;5.20;;
45642;SDS011;31358;46.008;11.144;2023-05-10T08:31:39;8.85;;;6.15;;
45642;SDS011;31358;46.008;11.144;2023-05-10T08:34:04;7.70;;;5.80;;
45642;SDS011;31358;46.008;11.144;2023-05-10T08:36:30;8.07;;;3.85;;
45642;SDS011;31358;46.008;11.144;2023-05-10T08:38:57;6.00;;;3.60;;
45642;SDS011;31358;46.008;11.144;2023-05-10T08:41:23;6.90;;;3.70;;
45642;SDS011;31358;46.008;11.144;2023-05-10T08:43:51;7.18;;;4.28;;
45642;SDS011;31358;46.008;11.144;2023-05-10T08:46:18;6.05;;;3.63;;
45642;SDS011;31358;46.008;11.144;2023-05-10T08:48:45;6.97;;;3.53;;
45642;SDS011;31358;46.008;11.144;2023-05-10T08:51:19;6.22;;;4.28;;
45642;SDS011;31358;46.008;11.144;2023-05-10T08:53:47;5.13;;;3.17;;
45642;SDS011;31358;46.008;11.144;2023-05-10T08:56:13;5.47;;;3.80;;
45642;SDS011;31358;46.008;11.144;2023-05-10T08:58:40;5.95;;;3.67;;
45642;SDS011;31358;46.008;11.144;2023-05-10T09:01:06;9.60;;;4.95;;
45642;SDS011;31358;46.008;11.144;2023-05-10T09:03:33;11.65;;;4.93;;
45642;SDS011;31358;46.008;11.144;2023-05-10T09:06:00;5.88;;;3.95;;
45642;SDS011;31358;46.008;11.144;2023-05-10T09:08:26;7.88;;;5.05;;
45642;SDS011;31358;46.008;11.144;2023-05-10T09:10:52;6.53;;;4.22;;
45642;SDS011;31358;46.008;11.144;2023-05-10T09:13:19;5.68;;;3.22;;
45642;SDS011;31358;46.008;11.144;2023-05-10T09:15:47;7.50;;;3.47;;
45642;SDS011;31358;46.008;11.144;2023-05-10T09:18:13;6.10;;;3.45;;
45642;SDS011;31358;46.008;11.144;2023-05-10T09:20:39;10.23;;;3.70;;
45642;SDS011;31358;46.008;11.144;2023-05-10T09:23:05;5.40;;;3.75;;
45642;SDS011;31358;46.008;11.144;2023-05-10T09:25:31;5.85;;;3.95;;
45642;SDS011;31358;46.008;11.144;2023-05-10T09:27:58;7.38;;;4.80;;
45642;SDS011;31358;46.008;11.144;2023-05-10T09:30:28;8.55;;;4.90;;
45642;SDS011;31358;46.008;11.144;2023-05-10T09:32:55;5.95;;;4.10;;
45642;SDS011;31358;46.008;11.144;2023-05-10T09:35:22;7.20;;;3.55;;
45642;SDS011;31358;46.008;11.144;2023-05-10T09:37:50;8.00;;;4.93;;
45642;SDS011;31358;46.008;11.144;2023-05-10T09:40:21;6.70;;;4.22;;
45642;SDS011;31358;46.008;11.144;2023-05-10T09:42:53;6.30;;;4.28;;
45642;SDS011;31358;46.008;11.144;2023-05-10T09:45:23;7.45;;;4.18;;
45642;SDS011;31358;46.008;11.144;2023-05-10T09:47:50;7.47;;;4.20;;
45642;SDS011;31358;46.008;11.144;2023-05-10T09:50:15;6.25;;;4.10;;
45642;SDS011;31358;46.008;11.144;2023-05-10T09:55:38;8.02;;;4.43;;
45642;SDS011;31358;46.008;11.144;2023-05-10T09:58:09;5.93;;;4.05;;
45642;SDS011;31358;46.008;11.144;2023-05-10T10:00:39;7.50;;;4.05;;
45642;SDS011;31358;46.008;11.144;2023-05-10T10:03:06;7.18;;;3.72;;
45642;SDS011;31358;46.008;11.144;2023-05-10T10:05:36;4.70;;;3.00;;
45642;SDS011;31358;46.008;11.144;2023-05-10T10:08:06;4.18;;;2.83;;
45642;SDS011;31358;46.008;11.144;2023-05-10T10:10:32;5.82;;;3.63;;
45642;SDS011;31358;46.008;11.144;2023-05-10T10:12:58;6.57;;;4.07;;
45642;SDS011;31358;46.008;11.144;2023-05-10T10:15:24;6.63;;;4.25;;
45642;SDS011;31358;46.008;11.144;2023-05-10T10:17:51;6.70;;;3.83;;
45642;SDS011;31358;46.008;11.144;2023-05-10T10:20:18;18.55;;;6.03;;
45642;SDS011;31358;46.008;11.144;2023-05-10T10:22:46;11.50;;;5.30;;
45642;SDS011;31358;46.008;11.144;2023-05-10T10:25:12;7.97;;;4.88;;
45642;SDS011;31358;46.008;11.144;2023-05-10T10:30:34;68.72;;;13.15;;
45642;SDS011;31358;46.008;11.144;2023-05-10T10:35:45;9.20;;;5.47;;
45642;SDS011;31358;46.008;11.144;2023-05-10T10:38:12;8.75;;;4.43;;
45642;SDS011;31358;46.008;11.144;2023-05-10T10:40:38;5.38;;;2.80;;
45642;SDS011;31358;46.008;11.144;2023-05-10T10:46:10;4.65;;;2.60;;
45642;SDS011;31358;46.008;11.144;2023-05-10T10:48:46;4.90;;;2.67;;
45642;SDS011;31358;46.008;11.144;2023-05-10T10:51:13;7.50;;;2.67;;
45642;SDS011;31358;46.008;11.144;2023-05-10T10:53:40;4.80;;;2.88;;
45642;SDS011;31358;46.008;11.144;2023-05-10T10:56:10;4.40;;;2.05;;
45642;SDS011;31358;46.008;11.144;2023-05-10T10:58:38;3.92;;;1.88;;
45642;SDS011;31358;46.008;11.144;2023-05-10T11:01:12;1.98;;;1.02;;
45642;SDS011;31358;46.008;11.144;2023-05-10T11:03:54;3.05;;;1.20;;
45642;SDS011;31358;46.008;11.144;2023-05-10T11:06:32;3.03;;;1.20;;
45642;SDS011;31358;46.008;11.144;2023-05-10T11:09:07;3.38;;;1.65;;
45642;SDS011;31358;46.008;11.144;2023-05-10T11:11:36;2.92;;;1.55;;
45642;SDS011;31358;46.008;11.144;2023-05-10T11:14:14;3.70;;;1.67;;
45642;SDS011;31358;46.008;11.144;2023-05-10T11:16:44;4.72;;;1.83;;
45642;SDS011;31358;46.008;11.144;2023-05-10T11:19:11;4.03;;;2.08;;
45642;SDS011;31358;46.008;11.144;2023-05-10T11:24:14;4.35;;;2.40;;
45642;SDS011;31358;46.008;11.144;2023-05-10T11:26:45;3.92;;;2.05;;
45642;SDS011;31358;46.008;11.144;2023-05-10T11:29:12;4.38;;;1.77;;
45642;SDS011;31358;46.008;11.144;2023-05-10T11:31:44;3.22;;;1.65;;
45642;SDS011;31358;46.008;11.144;2023-05-10T11:34:12;2.78;;;1.52;;
45642;SDS011;31358;46.008;11.144;2023-05-10T11:36:52;2.63;;;1.30;;
45642;SDS011;31358;46.008;11.144;2023-05-10T11:39:19;2.90;;;1.30;;
45642;SDS011;31358;46.008;11.144;2023-05-10T11:41:47;4.07;;;1.42;;
45642;SDS011;31358;46.008;11.144;2023-05-10T11:44:13;2.42;;;1.10;;
45642;SDS011;31358;46.008;11.144;2023-05-10T11:46:39;2.47;;;1.10;;
45642;SDS011;31358;46.008;11.144;2023-05-10T11:49:06;2.20;;;1.08;;
45642;SDS011;31358;46.008;11.144;2023-05-10T11:51:33;2.20;;;1.23;;
45642;SDS011;31358;46.008;11.144;2023-05-10T11:54:07;3.45;;;1.20;;
45642;SDS011;31358;46.008;11.144;2023-05-10T11:56:34;3.03;;;1.80;;
45642;SDS011;31358;46.008;11.144;2023-05-10T11:59:01;4.50;;;2.03;;
45642;SDS011;31358;46.008;11.144;2023-05-10T12:01:27;3.50;;;1.77;;
45642;SDS011;31358;46.008;11.144;2023-05-10T12:03:54;3.72;;;1.40;;
45642;SDS011;31358;46.008;11.144;2023-05-10T12:06:28;4.78;;;2.00;;
45642;SDS011;31358;46.008;11.144;2023-05-10T12:08:56;2.63;;;1.70;;
45642;SDS011;31358;46.008;11.144;2023-05-10T12:11:26;3.55;;;1.70;;
45642;SDS011;31358;46.008;11.144;2023-05-10T12:13:53;3.85;;;2.10;;
45642;SDS011;31358;46.008;11.144;2023-05-10T12:16:21;4.22;;;2.35;;
45642;SDS011;31358;46.008;11.144;2023-05-10T12:18:55;5.03;;;2.47;;
45642;SDS011;31358;46.008;11.144;2023-05-10T12:21:22;4.78;;;1.50;;
45642;SDS011;31358;46.008;11.144;2023-05-10T12:24:08;3.15;;;1.50;;
45642;SDS011;31358;46.008;11.144;2023-05-10T12:26:34;2.92;;;1.60;;
45642;SDS011;31358;46.008;11.144;2023-05-10T12:29:18;3.70;;;1.92;;
45642;SDS011;31358;46.008;11.144;2023-05-10T12:31:55;2.92;;;1.60;;
45642;SDS011;31358;46.008;11.144;2023-05-10T12:36:53;2.65;;;1.20;;
45642;SDS011;31358;46.008;11.144;2023-05-10T12:39:19;4.03;;;1.70;;
45642;SDS011;31358;46.008;11.144;2023-05-10T12:41:45;3.00;;;1.45;;
45642;SDS011;31358;46.008;11.144;2023-05-10T12:44:11;3.97;;;1.52;;
45642;SDS011;31358;46.008;11.144;2023-05-10T12:46:36;4.10;;;1.63;;
45642;SDS011;31358;46.008;11.144;2023-05-10T12:49:02;2.83;;;1.52;;
45642;SDS011;31358;46.008;11.144;2023-05-10T12:51:28;3.85;;;1.08;;
45642;SDS011;31358;46.008;11.144;2023-05-10T12:53:53;5.65;;;1.45;;
45642;SDS011;31358;46.008;11.144;2023-05-10T12:56:20;1.63;;;0.90;;
45642;SDS011;31358;46.008;11.144;2023-05-10T12:58:46;3.28;;;1.65;;
45642;SDS011;31358;46.008;11.144;2023-05-10T13:01:13;1.88;;;1.00;;
45642;SDS011;31358;46.008;11.144;2023-05-10T13:03:39;2.10;;;0.90;;
45642;SDS011;31358;46.008;11.144;2023-05-10T13:06:05;1.45;;;0.70;;
45642;SDS011;31358;46.008;11.144;2023-05-10T13:08:31;7.75;;;4.65;;
45642;SDS011;31358;46.008;11.144;2023-05-10T13:11:01;14.80;;;9.57;;
45642;SDS011;31358;46.008;11.144;2023-05-10T13:13:27;5.43;;;2.70;;
45642;SDS011;31358;46.008;11.144;2023-05-10T13:15:53;3.88;;;1.98;;
45642;SDS011;31358;46.008;11.144;2023-05-10T13:18:19;3.90;;;2.40;;
45642;SDS011;31358;46.008;11.144;2023-05-10T13:20:45;3.85;;;2.38;;
45642;SDS011;31358;46.008;11.144;2023-05-10T13:23:11;3.97;;;2.08;;
45642;SDS011;31358;46.008;11.144;2023-05-10T13:25:36;5.80;;;1.95;;
45642;SDS011;31358;46.008;11.144;2023-05-10T13:28:02;3.22;;;1.60;;
45642;SDS011;31358;46.008;11.144;2023-05-10T13:30:28;1.95;;;1.00;;
45642;SDS011;31358;46.008;11.144;2023-05-10T13:32:54;2.50;;;0.90;;
45642;SDS011;31358;46.008;11.144;2023-05-10T13:35:19;2.03;;;1.00;;
45642;SDS011;31358;46.008;11.144;2023-05-10T13:37:45;2.60;;;0.98;;
45642;SDS011;31358;46.008;11.144;2023-05-10T13:40:11;3.30;;;1.10;;
45642;SDS011;31358;46.008;11.144;2023-05-10T13:42:37;2.78;;;0.93;;
45642;SDS011;31358;46.008;11.144;2023-05-10T13:45:03;2.25;;;0.90;;
45642;SDS011;31358;46.008;11.144;2023-05-10T13:47:29;3.00;;;1.20;;
45642;SDS011;31358;46.008;11.144;2023-05-10T13:49:55;2.35;;;1.00;;
45642;SDS011;31358;46.008;11.144;2023-05-10T13:52:22;2.10;;;1.17;;
45642;SDS011;31358;46.008;11.144;2023-05-10T13:54:48;2.95;;;1.65;;
45642;SDS011;31358;46.008;11.144;2023-05-10T13:57:13;2.47;;;1.40;;
45642;SDS011;31358;46.008;11.144;2023-05-10T13:59:41;2.15;;;1.00;;
45642;SDS011;31358;46.008;11.144;2023-05-10T14:02:07;3.55;;;1.20;;
45642;SDS011;31358;46.008;11.144;2023-05-10T14:04:33;4.13;;;1.30;;
45642;SDS011;31358;46.008;11.144;2023-05-10T14:07:00;2.72;;;1.60;;
45642;SDS011;31358;46.008;11.144;2023-05-10T14:09:26;3.05;;;1.65;;
45642;SDS011;31358;46.008;11.144;2023-05-10T14:11:51;2.70;;;1.40;;
45642;SDS011;31358;46.008;11.144;2023-05-10T14:14:17;1.88;;;0.93;;
45642;SDS011;31358;46.008;11.144;2023-05-10T14:16:43;1.98;;;1.02;;
45642;SDS011;31358;46.008;11.144;2023-05-10T14:19:09;2.30;;;1.20;;
45642;SDS011;31358;46.008;11.144;2023-05-10T14:21:36;3.22;;;1.10;;
45642;SDS011;31358;46.008;11.144;2023-05-10T14:24:01;2.53;;;1.33;;
45642;SDS011;31358;46.008;11.144;2023-05-10T14:26:27;4.13;;;1.23;;
45642;SDS011;31358;46.008;11.144;2023-05-10T14:28:53;3.00;;;1.40;;
45642;SDS011;31358;46.008;11.144;2023-05-10T14:31:19;3.03;;;1.33;;
45642;SDS011;31358;46.008;11.144;2023-05-10T14:33:45;2.90;;;1.50;;
45642;SDS011;31358;46.008;11.144;2023-05-10T14:36:11;1.48;;;0.90;;
45642;SDS011;31358;46.008;11.144;2023-05-10T14:38:38;1.35;;;0.63;;
45642;SDS011;31358;46.008;11.144;2023-05-10T14:41:04;3.88;;;1.20;;
45642;SDS011;31358;46.008;11.144;2023-05-10T14:43:29;4.13;;;2.40;;
45642;SDS011;31358;46.008;11.144;2023-05-10T14:45:55;3.00;;;1.55;;
45642;SDS011;31358;46.008;11.144;2023-05-10T14:48:21;2.67;;;1.40;;
45642;SDS011;31358;46.008;11.144;2023-05-10T14:50:47;3.50;;;1.58;;
45642;SDS011;31358;46.008;11.144;2023-05-10T14:53:14;2.45;;;1.13;;
45642;SDS011;31358;46.008;11.144;2023-05-10T14:55:40;8.98;;;7.03;;
45642;SDS011;31358;46.008;11.144;2023-05-10T14:58:06;6.03;;;3.50;;
45642;SDS011;31358;46.008;11.144;2023-05-10T15:00:31;2.55;;;1.35;;
45642;SDS011;31358;46.008;11.144;2023-05-10T15:02:57;3.97;;;1.02;;
45642;SDS011;31358;46.008;11.144;2023-05-10T15:05:23;3.78;;;1.60;;
45642;SDS011;31358;46.008;11.144;2023-05-10T15:07:48;3.08;;;1.27;;
45642;SDS011;31358;46.008;11.144;2023-05-10T15:10:14;3.85;;;1.35;;
45642;SDS011;31358;46.008;11.144;2023-05-10T15:12:40;5.18;;;0.90;;